sensor_id;sensor_type;location;lat;lon;timestamp;P1;durP1;ratioP1;P2;durP2;ratioP2
72125;SDS011;59999;51.676;22.650;2022-11-18T00:01:05;10.30;;;3.50;;
72125;SDS011;59999;51.676;22.650;2022-11-18T00:03:31;10.38;;;2.90;;
72125;SDS011;59999;51.676;22.650;2022-11-18T00:05:57;11.10;;;3.47;;
72125;SDS011;59999;51.676;22.650;2022-11-18T00:08:23;13.27;;;4.17;;
72125;SDS011;59999;51.676;22.650;2022-11-18T00:10:50;11.30;;;3.42;;
72125;SDS011;59999;51.676;22.650;2022-11-18T00:13:17;10.55;;;3.28;;
72125;SDS011;59999;51.676;22.650;2022-11-18T00:16:05;9.73;;;3.28;;
72125;SDS011;59999;51.676;22.650;2022-11-18T00:18:33;9.80;;;3.20;;
72125;SDS011;59999;51.676;22.650;2022-11-18T00:21:00;10.83;;;3.13;;
72125;SDS011;59999;51.676;22.650;2022-11-18T00:23:30;9.30;;;3.33;;
72125;SDS011;59999;51.676;22.650;2022-11-18T00:26:00;9.85;;;3.35;;
72125;SDS011;59999;51.676;22.650;2022-11-18T00:28:33;10.38;;;3.30;;
72125;SDS011;59999;51.676;22.650;2022-11-18T00:31:07;9.38;;;3.13;;
72125;SDS011;59999;51.676;22.650;2022-11-18T00:33:35;10.00;;;3.10;;
72125;SDS011;59999;51.676;22.650;2022-11-18T00:36:02;10.20;;;3.13;;
72125;SDS011;59999;51.676;22.650;2022-11-18T00:38:29;10.45;;;3.40;;
72125;SDS011;59999;51.676;22.650;2022-11-18T00:41:01;9.95;;;3.35;;
72125;SDS011;59999;51.676;22.650;2022-11-18T00:43:31;12.37;;;4.00;;
72125;SDS011;59999;51.676;22.650;2022-11-18T00:45:57;10.88;;;4.32;;
72125;SDS011;59999;51.676;22.650;2022-11-18T00:48:24;15.05;;;5.53;;
72125;SDS011;59999;51.676;22.650;2022-11-18T00:50:50;13.85;;;5.20;;
72125;SDS011;59999;51.676;22.650;2022-11-18T00:53:17;14.35;;;4.90;;
72125;SDS011;59999;51.676;22.650;2022-11-18T00:55:44;15.90;;;5.73;;
72125;SDS011;59999;51.676;22.650;2022-11-18T00:58:10;14.60;;;5.25;;
72125;SDS011;59999;51.676;22.650;2022-11-18T01:00:41;17.58;;;5.85;;
72125;SDS011;59999;51.676;22.650;2022-11-18T01:03:09;15.77;;;5.63;;
72125;SDS011;59999;51.676;22.650;2022-11-18T01:05:36;14.60;;;5.25;;
72125;SDS011;59999;51.676;22.650;2022-11-18T01:08:04;15.77;;;5.47;;
72125;SDS011;59999;51.676;22.650;2022-11-18T01:10:30;13.07;;;5.32;;
72125;SDS011;59999;51.676;22.650;2022-11-18T01:12:57;16.25;;;5.55;;
72125;SDS011;59999;51.676;22.650;2022-11-18T01:15:41;14.32;;;5.65;;
72125;SDS011;59999;51.676;22.650;2022-11-18T01:18:09;16.50;;;5.93;;
72125;SDS011;59999;51.676;22.650;2022-11-18T01:20:35;12.97;;;4.47;;
72125;SDS011;59999;51.676;22.650;2022-11-18T01:23:01;12.63;;;4.97;;
72125;SDS011;59999;51.676;22.650;2022-11-18T01:25:28;14.18;;;4.55;;
72125;SDS011;59999;51.676;22.650;2022-11-18T01:27:54;14.68;;;4.53;;
72125;SDS011;59999;51.676;22.650;2022-11-18T01:30:20;15.27;;;5.28;;
72125;SDS011;59999;51.676;22.650;2022-11-18T01:32:47;13.23;;;5.07;;
72125;SDS011;59999;51.676;22.650;2022-11-18T01:35:13;13.60;;;5.18;;
72125;SDS011;59999;51.676;22.650;2022-11-18T01:37:39;13.70;;;5.25;;
72125;SDS011;59999;51.676;22.650;2022-11-18T01:40:06;15.67;;;5.17;;
72125;SDS011;59999;51.676;22.650;2022-11-18T01:42:33;14.50;;;4.72;;
72125;SDS011;59999;51.676;22.650;2022-11-18T01:45:05;15.13;;;5.70;;
72125;SDS011;59999;51.676;22.650;2022-11-18T01:47:47;15.70;;;5.30;;
72125;SDS011;59999;51.676;22.650;2022-11-18T01:50:26;14.57;;;5.88;;
72125;SDS011;59999;51.676;22.650;2022-11-18T01:52:54;15.57;;;5.60;;
72125;SDS011;59999;51.676;22.650;2022-11-18T01:55:28;15.75;;;5.63;;
72125;SDS011;59999;51.676;22.650;2022-11-18T01:58:01;15.85;;;5.32;;
72125;SDS011;59999;51.676;22.650;2022-11-18T02:00:31;14.02;;;5.28;;
72125;SDS011;59999;51.676;22.650;2022-11-18T02:02:57;14.43;;;5.15;;
72125;SDS011;59999;51.676;22.650;2022-11-18T02:05:25;17.40;;;5.17;;
72125;SDS011;59999;51.676;22.650;2022-11-18T02:07:51;15.20;;;5.28;;
72125;SDS011;59999;51.676;22.650;2022-11-18T02:10:19;15.30;;;5.50;;
72125;SDS011;59999;51.676;22.650;2022-11-18T02:12:47;15.17;;;5.30;;
72125;SDS011;59999;51.676;22.650;2022-11-18T02:15:15;17.17;;;6.68;;
72125;SDS011;59999;51.676;22.650;2022-11-18T02:31:40;13.43;;;4.80;;
72125;SDS011;59999;51.676;22.650;2022-11-18T02:36:57;13.38;;;4.53;;
72125;SDS011;59999;51.676;22.650;2022-11-18T02:39:32;13.10;;;4.50;;
72125;SDS011;59999;51.676;22.650;2022-11-18T02:42:04;12.63;;;4.70;;
72125;SDS011;59999;51.676;22.650;2022-11-18T02:44:37;12.85;;;4.53;;
72125;SDS011;59999;51.676;22.650;2022-11-18T02:47:07;13.98;;;4.57;;
72125;SDS011;59999;51.676;22.650;2022-11-18T02:49:37;12.55;;;4.95;;
72125;SDS011;59999;51.676;22.650;2022-11-18T02:52:06;11.83;;;4.40;;
72125;SDS011;59999;51.676;22.650;2022-11-18T02:54:34;11.82;;;4.70;;
72125;SDS011;59999;51.676;22.650;2022-11-18T02:57:04;15.98;;;5.47;;
72125;SDS011;59999;51.676;22.650;2022-11-18T02:59:30;12.93;;;4.38;;
72125;SDS011;59999;51.676;22.650;2022-11-18T03:01:56;11.87;;;4.20;;
72125;SDS011;59999;51.676;22.650;2022-11-18T03:04:23;12.50;;;4.72;;
72125;SDS011;59999;51.676;22.650;2022-11-18T03:09:36;11.88;;;3.97;;
72125;SDS011;59999;51.676;22.650;2022-11-18T03:12:23;12.60;;;4.17;;
72125;SDS011;59999;51.676;22.650;2022-11-18T03:20:16;11.82;;;3.65;;
72125;SDS011;59999;51.676;22.650;2022-11-18T03:28:24;13.05;;;4.10;;
72125;SDS011;59999;51.676;22.650;2022-11-18T03:31:06;13.30;;;4.40;;
72125;SDS011;59999;51.676;22.650;2022-11-18T03:33:56;14.80;;;5.22;;
72125;SDS011;59999;51.676;22.650;2022-11-18T03:36:26;11.63;;;4.00;;
72125;SDS011;59999;51.676;22.650;2022-11-18T03:38:58;13.67;;;5.20;;
72125;SDS011;59999;51.676;22.650;2022-11-18T03:41:26;15.45;;;5.05;;
72125;SDS011;59999;51.676;22.650;2022-11-18T03:44:00;14.30;;;5.05;;
72125;SDS011;59999;51.676;22.650;2022-11-18T03:46:43;16.08;;;5.13;;
72125;SDS011;59999;51.676;22.650;2022-11-18T03:49:13;18.88;;;7.05;;
72125;SDS011;59999;51.676;22.650;2022-11-18T03:51:45;12.67;;;4.70;;
72125;SDS011;59999;51.676;22.650;2022-11-18T03:54:19;14.18;;;5.32;;
72125;SDS011;59999;51.676;22.650;2022-11-18T03:56:48;14.40;;;5.15;;
72125;SDS011;59999;51.676;22.650;2022-11-18T03:59:22;14.13;;;5.18;;
72125;SDS011;59999;51.676;22.650;2022-11-18T04:02:25;13.90;;;4.90;;
72125;SDS011;59999;51.676;22.650;2022-11-18T04:04:52;16.47;;;5.30;;
72125;SDS011;59999;51.676;22.650;2022-11-18T04:09:55;16.25;;;5.50;;
72125;SDS011;59999;51.676;22.650;2022-11-18T04:12:25;13.37;;;5.20;;
72125;SDS011;59999;51.676;22.650;2022-11-18T04:14:55;13.23;;;5.57;;
72125;SDS011;59999;51.676;22.650;2022-11-18T04:17:22;17.08;;;6.03;;
72125;SDS011;59999;51.676;22.650;2022-11-18T04:19:50;14.20;;;5.22;;
72125;SDS011;59999;51.676;22.650;2022-11-18T04:22:16;14.65;;;5.38;;
72125;SDS011;59999;51.676;22.650;2022-11-18T04:24:43;15.45;;;5.30;;
72125;SDS011;59999;51.676;22.650;2022-11-18T04:27:09;14.18;;;5.28;;
72125;SDS011;59999;51.676;22.650;2022-11-18T04:29:35;13.63;;;5.30;;
72125;SDS011;59999;51.676;22.650;2022-11-18T04:32:01;14.87;;;5.30;;
72125;SDS011;59999;51.676;22.650;2022-11-18T04:34:28;16.00;;;5.60;;
72125;SDS011;59999;51.676;22.650;2022-11-18T04:36:55;14.30;;;5.38;;
72125;SDS011;59999;51.676;22.650;2022-11-18T04:39:21;15.75;;;5.85;;
72125;SDS011;59999;51.676;22.650;2022-11-18T04:41:47;16.75;;;5.38;;
72125;SDS011;59999;51.676;22.650;2022-11-18T04:44:26;16.30;;;6.13;;
72125;SDS011;59999;51.676;22.650;2022-11-18T04:46:57;13.55;;;5.65;;
72125;SDS011;59999;51.676;22.650;2022-11-18T04:49:24;16.35;;;6.32;;
72125;SDS011;59999;51.676;22.650;2022-11-18T04:51:51;14.68;;;5.50;;
72125;SDS011;59999;51.676;22.650;2022-11-18T04:54:18;14.15;;;5.70;;
72125;SDS011;59999;51.676;22.650;2022-11-18T04:56:45;18.03;;;6.57;;
72125;SDS011;59999;51.676;22.650;2022-11-18T04:59:12;15.57;;;5.72;;
72125;SDS011;59999;51.676;22.650;2022-11-18T05:01:39;17.75;;;6.45;;
72125;SDS011;59999;51.676;22.650;2022-11-18T05:04:05;20.13;;;7.05;;
72125;SDS011;59999;51.676;22.650;2022-11-18T05:06:32;17.30;;;6.53;;
72125;SDS011;59999;51.676;22.650;2022-11-18T05:08:59;14.15;;;6.13;;
72125;SDS011;59999;51.676;22.650;2022-11-18T05:11:26;18.67;;;6.00;;
72125;SDS011;59999;51.676;22.650;2022-11-18T05:14:11;17.35;;;6.68;;
72125;SDS011;59999;51.676;22.650;2022-11-18T05:16:37;18.20;;;6.55;;
72125;SDS011;59999;51.676;22.650;2022-11-18T05:19:03;17.00;;;6.63;;
72125;SDS011;59999;51.676;22.650;2022-11-18T05:21:30;20.42;;;6.63;;
72125;SDS011;59999;51.676;22.650;2022-11-18T05:23:59;15.68;;;6.50;;
72125;SDS011;59999;51.676;22.650;2022-11-18T05:26:26;16.37;;;6.50;;
72125;SDS011;59999;51.676;22.650;2022-11-18T05:28:52;20.33;;;7.25;;
72125;SDS011;59999;51.676;22.650;2022-11-18T05:31:18;20.83;;;8.05;;
72125;SDS011;59999;51.676;22.650;2022-11-18T05:33:44;21.40;;;7.00;;
72125;SDS011;59999;51.676;22.650;2022-11-18T05:36:14;18.97;;;7.33;;
72125;SDS011;59999;51.676;22.650;2022-11-18T05:38:41;18.75;;;6.85;;
72125;SDS011;59999;51.676;22.650;2022-11-18T05:41:08;17.45;;;7.30;;
72125;SDS011;59999;51.676;22.650;2022-11-18T05:43:35;19.77;;;7.50;;
72125;SDS011;59999;51.676;22.650;2022-11-18T05:46:02;16.98;;;7.05;;
72125;SDS011;59999;51.676;22.650;2022-11-18T05:48:28;16.03;;;5.93;;
72125;SDS011;59999;51.676;22.650;2022-11-18T05:50:54;19.98;;;7.28;;
72125;SDS011;59999;51.676;22.650;2022-11-18T05:53:21;17.73;;;7.22;;
72125;SDS011;59999;51.676;22.650;2022-11-18T05:58:53;17.80;;;6.70;;
72125;SDS011;59999;51.676;22.650;2022-11-18T06:01:20;20.35;;;7.78;;
72125;SDS011;59999;51.676;22.650;2022-11-18T06:03:50;17.65;;;8.05;;
72125;SDS011;59999;51.676;22.650;2022-11-18T06:06:17;20.83;;;7.63;;
72125;SDS011;59999;51.676;22.650;2022-11-18T06:08:54;20.88;;;7.95;;
72125;SDS011;59999;51.676;22.650;2022-11-18T06:11:26;19.53;;;7.10;;
72125;SDS011;59999;51.676;22.650;2022-11-18T06:17:01;23.08;;;8.13;;
72125;SDS011;59999;51.676;22.650;2022-11-18T06:19:32;21.35;;;7.80;;
72125;SDS011;59999;51.676;22.650;2022-11-18T06:21:59;21.48;;;8.05;;
72125;SDS011;59999;51.676;22.650;2022-11-18T06:24:25;20.57;;;8.03;;
72125;SDS011;59999;51.676;22.650;2022-11-18T06:26:51;21.83;;;8.50;;
72125;SDS011;59999;51.676;22.650;2022-11-18T06:29:17;21.13;;;8.10;;
72125;SDS011;59999;51.676;22.650;2022-11-18T06:31:44;22.67;;;8.95;;
72125;SDS011;59999;51.676;22.650;2022-11-18T06:34:10;24.77;;;9.40;;
72125;SDS011;59999;51.676;22.650;2022-11-18T06:36:36;27.23;;;8.55;;
72125;SDS011;59999;51.676;22.650;2022-11-18T06:39:05;23.93;;;8.80;;
72125;SDS011;59999;51.676;22.650;2022-11-18T06:41:32;25.52;;;9.60;;
72125;SDS011;59999;51.676;22.650;2022-11-18T06:43:58;21.67;;;8.57;;
72125;SDS011;59999;51.676;22.650;2022-11-18T06:46:24;21.77;;;8.40;;
72125;SDS011;59999;51.676;22.650;2022-11-18T06:49:09;22.73;;;8.83;;
72125;SDS011;59999;51.676;22.650;2022-11-18T06:51:35;21.55;;;8.30;;
72125;SDS011;59999;51.676;22.650;2022-11-18T06:54:01;23.35;;;9.98;;
72125;SDS011;59999;51.676;22.650;2022-11-18T06:56:27;20.48;;;8.32;;
72125;SDS011;59999;51.676;22.650;2022-11-18T06:58:53;24.03;;;8.83;;
72125;SDS011;59999;51.676;22.650;2022-11-18T07:01:21;23.13;;;9.13;;
72125;SDS011;59999;51.676;22.650;2022-11-18T07:03:51;23.08;;;9.13;;
72125;SDS011;59999;51.676;22.650;2022-11-18T07:06:21;20.92;;;8.27;;
72125;SDS011;59999;51.676;22.650;2022-11-18T07:08:49;23.73;;;9.13;;
72125;SDS011;59999;51.676;22.650;2022-11-18T07:11:17;24.55;;;8.30;;
72125;SDS011;59999;51.676;22.650;2022-11-18T07:13:47;20.25;;;8.02;;
72125;SDS011;59999;51.676;22.650;2022-11-18T07:16:17;20.05;;;8.25;;
72125;SDS011;59999;51.676;22.650;2022-11-18T07:18:46;21.95;;;8.02;;
72125;SDS011;59999;51.676;22.650;2022-11-18T07:21:13;21.33;;;7.87;;
72125;SDS011;59999;51.676;22.650;2022-11-18T07:23:41;19.77;;;7.43;;
72125;SDS011;59999;51.676;22.650;2022-11-18T07:26:07;20.05;;;8.38;;
72125;SDS011;59999;51.676;22.650;2022-11-18T07:28:34;29.52;;;10.07;;
72125;SDS011;59999;51.676;22.650;2022-11-18T07:31:10;25.95;;;9.68;;
72125;SDS011;59999;51.676;22.650;2022-11-18T07:33:38;25.63;;;9.13;;
72125;SDS011;59999;51.676;22.650;2022-11-18T07:38:31;29.10;;;9.20;;
72125;SDS011;59999;51.676;22.650;2022-11-18T07:41:19;34.90;;;11.88;;
72125;SDS011;59999;51.676;22.650;2022-11-18T07:43:44;116.50;;;23.70;;
72125;SDS011;59999;51.676;22.650;2022-11-18T07:46:24;26.57;;;9.10;;
72125;SDS011;59999;51.676;22.650;2022-11-18T07:48:52;86.75;;;17.10;;
72125;SDS011;59999;51.676;22.650;2022-11-18T07:51:21;52.88;;;12.93;;
72125;SDS011;59999;51.676;22.650;2022-11-18T07:53:48;24.08;;;9.02;;
72125;SDS011;59999;51.676;22.650;2022-11-18T07:56:14;21.13;;;8.00;;
72125;SDS011;59999;51.676;22.650;2022-11-18T07:58:41;25.93;;;8.63;;
72125;SDS011;59999;51.676;22.650;2022-11-18T08:03:37;23.70;;;8.75;;
72125;SDS011;59999;51.676;22.650;2022-11-18T08:06:05;21.40;;;7.95;;
72125;SDS011;59999;51.676;22.650;2022-11-18T08:08:32;21.27;;;8.38;;
72125;SDS011;59999;51.676;22.650;2022-11-18T08:10:58;20.83;;;8.27;;
72125;SDS011;59999;51.676;22.650;2022-11-18T08:13:26;19.15;;;7.63;;
72125;SDS011;59999;51.676;22.650;2022-11-18T08:15:53;23.48;;;8.88;;
72125;SDS011;59999;51.676;22.650;2022-11-18T08:18:19;22.13;;;8.30;;
72125;SDS011;59999;51.676;22.650;2022-11-18T08:20:45;26.48;;;9.38;;
72125;SDS011;59999;51.676;22.650;2022-11-18T08:23:11;22.13;;;8.07;;
72125;SDS011;59999;51.676;22.650;2022-11-18T08:25:38;28.83;;;9.60;;
72125;SDS011;59999;51.676;22.650;2022-11-18T08:28:04;24.83;;;8.20;;
72125;SDS011;59999;51.676;22.650;2022-11-18T08:30:31;24.27;;;8.40;;
72125;SDS011;59999;51.676;22.650;2022-11-18T08:32:58;23.60;;;8.27;;
72125;SDS011;59999;51.676;22.650;2022-11-18T08:35:27;19.10;;;7.50;;
72125;SDS011;59999;51.676;22.650;2022-11-18T08:37:53;21.40;;;8.02;;
72125;SDS011;59999;51.676;22.650;2022-11-18T08:40:20;17.77;;;7.55;;
72125;SDS011;59999;51.676;22.650;2022-11-18T08:42:46;21.67;;;8.30;;
72125;SDS011;59999;51.676;22.650;2022-11-18T08:45:12;18.95;;;7.60;;
72125;SDS011;59999;51.676;22.650;2022-11-18T08:47:38;20.97;;;8.40;;
72125;SDS011;59999;51.676;22.650;2022-11-18T08:50:04;20.00;;;8.75;;
72125;SDS011;59999;51.676;22.650;2022-11-18T08:52:33;20.35;;;7.78;;
72125;SDS011;59999;51.676;22.650;2022-11-18T08:55:00;18.83;;;7.67;;
72125;SDS011;59999;51.676;22.650;2022-11-18T08:57:26;21.65;;;8.65;;
72125;SDS011;59999;51.676;22.650;2022-11-18T08:59:52;21.45;;;9.00;;
72125;SDS011;59999;51.676;22.650;2022-11-18T09:02:19;20.38;;;8.38;;
72125;SDS011;59999;51.676;22.650;2022-11-18T09:04:50;26.47;;;8.60;;
72125;SDS011;59999;51.676;22.650;2022-11-18T09:07:17;19.85;;;7.95;;
72125;SDS011;59999;51.676;22.650;2022-11-18T09:09:44;22.58;;;8.40;;
72125;SDS011;59999;51.676;22.650;2022-11-18T09:12:10;20.80;;;8.00;;
72125;SDS011;59999;51.676;22.650;2022-11-18T09:14:45;21.80;;;7.97;;
72125;SDS011;59999;51.676;22.650;2022-11-18T09:17:11;19.13;;;8.48;;
72125;SDS011;59999;51.676;22.650;2022-11-18T09:19:38;18.85;;;8.35;;
72125;SDS011;59999;51.676;22.650;2022-11-18T09:22:05;22.33;;;8.27;;
72125;SDS011;59999;51.676;22.650;2022-11-18T09:24:32;24.95;;;9.05;;
72125;SDS011;59999;51.676;22.650;2022-11-18T09:26:58;22.53;;;8.70;;
72125;SDS011;59999;51.676;22.650;2022-11-18T09:29:27;25.20;;;8.52;;
72125;SDS011;59999;51.676;22.650;2022-11-18T09:31:53;25.08;;;9.43;;
72125;SDS011;59999;51.676;22.650;2022-11-18T09:34:19;22.80;;;9.10;;
72125;SDS011;59999;51.676;22.650;2022-11-18T09:36:45;20.50;;;8.07;;
72125;SDS011;59999;51.676;22.650;2022-11-18T09:39:11;20.15;;;7.50;;
72125;SDS011;59999;51.676;22.650;2022-11-18T09:49:38;23.55;;;8.45;;
72125;SDS011;59999;51.676;22.650;2022-11-18T09:54:37;21.70;;;8.60;;
72125;SDS011;59999;51.676;22.650;2022-11-18T09:57:14;17.90;;;7.13;;
72125;SDS011;59999;51.676;22.650;2022-11-18T09:59:59;19.92;;;7.78;;
72125;SDS011;59999;51.676;22.650;2022-11-18T10:05:23;23.75;;;8.63;;
72125;SDS011;59999;51.676;22.650;2022-11-18T10:13:30;47.85;;;14.48;;
72125;SDS011;59999;51.676;22.650;2022-11-18T10:19:16;26.02;;;9.68;;
72125;SDS011;59999;51.676;22.650;2022-11-18T10:21:59;23.27;;;9.40;;
72125;SDS011;59999;51.676;22.650;2022-11-18T10:24:49;24.52;;;8.90;;
72125;SDS011;59999;51.676;22.650;2022-11-18T10:27:23;29.65;;;10.75;;
72125;SDS011;59999;51.676;22.650;2022-11-18T10:29:57;42.83;;;13.02;;
72125;SDS011;59999;51.676;22.650;2022-11-18T10:32:26;28.83;;;11.00;;
72125;SDS011;59999;51.676;22.650;2022-11-18T10:34:53;24.40;;;9.70;;
72125;SDS011;59999;51.676;22.650;2022-11-18T10:37:33;26.50;;;9.00;;
72125;SDS011;59999;51.676;22.650;2022-11-18T10:40:02;28.13;;;11.20;;
72125;SDS011;59999;51.676;22.650;2022-11-18T10:42:34;29.90;;;10.32;;
72125;SDS011;59999;51.676;22.650;2022-11-18T10:45:15;30.35;;;10.85;;
72125;SDS011;59999;51.676;22.650;2022-11-18T10:50:32;35.05;;;13.82;;
72125;SDS011;59999;51.676;22.650;2022-11-18T10:53:28;36.03;;;13.60;;
72125;SDS011;59999;51.676;22.650;2022-11-18T10:56:07;21.92;;;9.05;;
72125;SDS011;59999;51.676;22.650;2022-11-18T10:58:36;24.95;;;10.02;;
72125;SDS011;59999;51.676;22.650;2022-11-18T11:01:09;28.70;;;10.53;;
72125;SDS011;59999;51.676;22.650;2022-11-18T11:08:52;24.00;;;9.25;;
72125;SDS011;59999;51.676;22.650;2022-11-18T11:11:23;23.33;;;9.00;;
72125;SDS011;59999;51.676;22.650;2022-11-18T11:13:51;21.30;;;9.27;;
72125;SDS011;59999;51.676;22.650;2022-11-18T11:16:42;24.83;;;9.18;;
72125;SDS011;59999;51.676;22.650;2022-11-18T11:19:12;27.90;;;10.55;;
72125;SDS011;59999;51.676;22.650;2022-11-18T11:21:42;27.90;;;11.18;;
72125;SDS011;59999;51.676;22.650;2022-11-18T11:24:09;25.53;;;10.23;;
72125;SDS011;59999;51.676;22.650;2022-11-18T11:34:45;25.50;;;9.67;;
72125;SDS011;59999;51.676;22.650;2022-11-18T11:40:19;23.13;;;9.45;;
72125;SDS011;59999;51.676;22.650;2022-11-18T11:54:22;26.83;;;10.15;;
72125;SDS011;59999;51.676;22.650;2022-11-18T12:00:21;22.40;;;9.07;;
72125;SDS011;59999;51.676;22.650;2022-11-18T12:05:30;25.55;;;10.18;;
72125;SDS011;59999;51.676;22.650;2022-11-18T12:08:09;26.48;;;10.13;;
72125;SDS011;59999;51.676;22.650;2022-11-18T12:18:42;22.15;;;8.80;;
72125;SDS011;59999;51.676;22.650;2022-11-18T12:22:11;21.95;;;8.75;;
72125;SDS011;59999;51.676;22.650;2022-11-18T12:24:26;20.85;;;8.68;;
72125;SDS011;59999;51.676;22.650;2022-11-18T12:29:55;23.40;;;9.87;;
72125;SDS011;59999;51.676;22.650;2022-11-18T12:35:02;23.38;;;9.73;;
72125;SDS011;59999;51.676;22.650;2022-11-18T12:51:48;25.60;;;10.05;;
72125;SDS011;59999;51.676;22.650;2022-11-18T12:54:19;25.50;;;9.82;;
72125;SDS011;59999;51.676;22.650;2022-11-18T12:56:49;25.43;;;11.30;;
72125;SDS011;59999;51.676;22.650;2022-11-18T12:59:23;25.70;;;9.98;;
72125;SDS011;59999;51.676;22.650;2022-11-18T13:04:36;41.83;;;18.25;;
72125;SDS011;59999;51.676;22.650;2022-11-18T13:07:03;27.35;;;10.15;;
72125;SDS011;59999;51.676;22.650;2022-11-18T13:09:34;24.57;;;9.83;;
72125;SDS011;59999;51.676;22.650;2022-11-18T13:12:02;25.95;;;9.77;;
72125;SDS011;59999;51.676;22.650;2022-11-18T13:14:38;25.67;;;10.52;;
72125;SDS011;59999;51.676;22.650;2022-11-18T13:20:37;33.17;;;13.25;;
72125;SDS011;59999;51.676;22.650;2022-11-18T13:26:00;24.38;;;9.27;;
72125;SDS011;59999;51.676;22.650;2022-11-18T13:28:35;22.38;;;9.48;;
72125;SDS011;59999;51.676;22.650;2022-11-18T13:33:44;30.92;;;12.63;;
72125;SDS011;59999;51.676;22.650;2022-11-18T13:36:19;28.23;;;11.47;;
72125;SDS011;59999;51.676;22.650;2022-11-18T13:38:56;27.80;;;11.52;;
72125;SDS011;59999;51.676;22.650;2022-11-18T13:41:24;33.72;;;14.57;;
72125;SDS011;59999;51.676;22.650;2022-11-18T13:46:48;28.27;;;11.52;;
72125;SDS011;59999;51.676;22.650;2022-11-18T13:49:21;29.33;;;11.25;;
72125;SDS011;59999;51.676;22.650;2022-11-18T13:51:53;33.42;;;13.30;;
72125;SDS011;59999;51.676;22.650;2022-11-18T13:54:22;30.25;;;12.80;;
72125;SDS011;59999;51.676;22.650;2022-11-18T13:56:49;32.27;;;13.83;;
72125;SDS011;59999;51.676;22.650;2022-11-18T13:59:17;26.65;;;11.35;;
72125;SDS011;59999;51.676;22.650;2022-11-18T14:01:46;32.83;;;13.40;;
72125;SDS011;59999;51.676;22.650;2022-11-18T14:04:20;55.55;;;17.48;;
72125;SDS011;59999;51.676;22.650;2022-11-18T14:06:48;36.30;;;14.65;;
72125;SDS011;59999;51.676;22.650;2022-11-18T14:09:22;45.97;;;17.50;;
72125;SDS011;59999;51.676;22.650;2022-11-18T14:11:59;35.20;;;14.02;;
72125;SDS011;59999;51.676;22.650;2022-11-18T14:14:27;38.92;;;14.73;;
72125;SDS011;59999;51.676;22.650;2022-11-18T14:17:02;61.90;;;22.33;;
72125;SDS011;59999;51.676;22.650;2022-11-18T14:19:30;42.70;;;15.90;;
72125;SDS011;59999;51.676;22.650;2022-11-18T14:22:04;35.87;;;15.33;;
72125;SDS011;59999;51.676;22.650;2022-11-18T14:24:36;39.55;;;15.95;;
72125;SDS011;59999;51.676;22.650;2022-11-18T14:30:33;40.27;;;15.83;;
72125;SDS011;59999;51.676;22.650;2022-11-18T14:35:56;47.10;;;18.80;;
72125;SDS011;59999;51.676;22.650;2022-11-18T14:41:06;55.33;;;23.38;;
72125;SDS011;59999;51.676;22.650;2022-11-18T14:43:33;38.90;;;15.10;;
72125;SDS011;59999;51.676;22.650;2022-11-18T14:46:01;41.65;;;18.15;;
72125;SDS011;59999;51.676;22.650;2022-11-18T14:48:29;42.10;;;19.13;;
72125;SDS011;59999;51.676;22.650;2022-11-18T14:50:57;40.85;;;16.30;;
72125;SDS011;59999;51.676;22.650;2022-11-18T14:53:23;43.13;;;17.10;;
72125;SDS011;59999;51.676;22.650;2022-11-18T14:55:51;39.43;;;16.27;;
72125;SDS011;59999;51.676;22.650;2022-11-18T14:58:18;33.42;;;12.93;;
72125;SDS011;59999;51.676;22.650;2022-11-18T15:00:46;41.92;;;16.65;;
72125;SDS011;59999;51.676;22.650;2022-11-18T15:03:13;50.33;;;17.23;;
72125;SDS011;59999;51.676;22.650;2022-11-18T15:05:39;39.25;;;14.95;;
72125;SDS011;59999;51.676;22.650;2022-11-18T15:08:05;77.23;;;27.93;;
72125;SDS011;59999;51.676;22.650;2022-11-18T15:10:32;53.58;;;18.02;;
72125;SDS011;59999;51.676;22.650;2022-11-18T15:12:58;116.63;;;35.15;;
72125;SDS011;59999;51.676;22.650;2022-11-18T15:15:24;80.83;;;26.67;;
72125;SDS011;59999;51.676;22.650;2022-11-18T15:17:50;69.38;;;24.40;;
72125;SDS011;59999;51.676;22.650;2022-11-18T15:20:17;145.23;;;43.47;;
72125;SDS011;59999;51.676;22.650;2022-11-18T15:22:45;98.10;;;31.20;;
72125;SDS011;59999;51.676;22.650;2022-11-18T15:25:11;117.38;;;33.22;;
72125;SDS011;59999;51.676;22.650;2022-11-18T15:27:37;61.00;;;19.65;;
72125;SDS011;59999;51.676;22.650;2022-11-18T15:30:04;86.95;;;29.92;;
72125;SDS011;59999;51.676;22.650;2022-11-18T15:32:30;88.50;;;27.57;;
72125;SDS011;59999;51.676;22.650;2022-11-18T15:34:56;107.43;;;31.48;;
72125;SDS011;59999;51.676;22.650;2022-11-18T15:37:22;153.68;;;37.15;;
72125;SDS011;59999;51.676;22.650;2022-11-18T15:39:48;132.27;;;35.67;;
72125;SDS011;59999;51.676;22.650;2022-11-18T15:42:15;76.85;;;25.63;;
72125;SDS011;59999;51.676;22.650;2022-11-18T15:44:43;107.80;;;33.05;;
72125;SDS011;59999;51.676;22.650;2022-11-18T15:47:09;74.47;;;24.98;;
72125;SDS011;59999;51.676;22.650;2022-11-18T15:49:35;75.35;;;23.90;;
72125;SDS011;59999;51.676;22.650;2022-11-18T15:52:01;90.27;;;27.90;;
72125;SDS011;59999;51.676;22.650;2022-11-18T15:54:27;62.85;;;21.20;;
72125;SDS011;59999;51.676;22.650;2022-11-18T15:56:53;40.05;;;15.60;;
72125;SDS011;59999;51.676;22.650;2022-11-18T15:59:20;35.70;;;13.70;;
72125;SDS011;59999;51.676;22.650;2022-11-18T16:01:46;38.17;;;13.88;;
72125;SDS011;59999;51.676;22.650;2022-11-18T16:04:14;53.80;;;18.30;;
72125;SDS011;59999;51.676;22.650;2022-11-18T16:06:41;39.70;;;14.27;;
72125;SDS011;59999;51.676;22.650;2022-11-18T16:09:08;42.80;;;16.23;;
72125;SDS011;59999;51.676;22.650;2022-11-18T16:11:34;66.60;;;21.55;;
72125;SDS011;59999;51.676;22.650;2022-11-18T16:14:19;55.85;;;19.25;;
72125;SDS011;59999;51.676;22.650;2022-11-18T16:16:46;36.50;;;14.50;;
72125;SDS011;59999;51.676;22.650;2022-11-18T16:19:14;36.93;;;14.53;;
72125;SDS011;59999;51.676;22.650;2022-11-18T16:21:42;62.05;;;25.63;;
72125;SDS011;59999;51.676;22.650;2022-11-18T16:24:14;39.90;;;15.45;;
72125;SDS011;59999;51.676;22.650;2022-11-18T16:26:45;53.95;;;19.20;;
72125;SDS011;59999;51.676;22.650;2022-11-18T16:29:11;36.90;;;14.18;;
72125;SDS011;59999;51.676;22.650;2022-11-18T16:31:40;33.40;;;12.33;;
72125;SDS011;59999;51.676;22.650;2022-11-18T16:36:31;33.65;;;12.50;;
72125;SDS011;59999;51.676;22.650;2022-11-18T16:39:01;31.90;;;12.50;;
72125;SDS011;59999;51.676;22.650;2022-11-18T16:41:35;40.85;;;14.73;;
72125;SDS011;59999;51.676;22.650;2022-11-18T16:44:05;26.75;;;10.68;;
72125;SDS011;59999;51.676;22.650;2022-11-18T16:46:33;34.10;;;12.60;;
72125;SDS011;59999;51.676;22.650;2022-11-18T16:49:00;34.67;;;12.23;;
72125;SDS011;59999;51.676;22.650;2022-11-18T16:51:27;33.40;;;12.67;;
72125;SDS011;59999;51.676;22.650;2022-11-18T16:53:58;44.55;;;16.73;;
72125;SDS011;59999;51.676;22.650;2022-11-18T16:56:27;39.40;;;15.00;;
72125;SDS011;59999;51.676;22.650;2022-11-18T16:58:56;41.83;;;16.30;;
72125;SDS011;59999;51.676;22.650;2022-11-18T17:01:23;34.05;;;12.15;;
72125;SDS011;59999;51.676;22.650;2022-11-18T17:03:51;49.50;;;19.43;;
72125;SDS011;59999;51.676;22.650;2022-11-18T17:06:18;33.38;;;12.63;;
72125;SDS011;59999;51.676;22.650;2022-11-18T17:08:44;59.83;;;25.98;;